createdAt,value
2018-08-07T00:01:38.562Z,99.90
2018-08-07T00:04:06.226Z,99.90
2018-08-07T00:06:33.886Z,99.90
2018-08-07T00:09:01.478Z,99.90
2018-08-07T00:11:29.227Z,99.90
2018-08-07T00:13:56.943Z,99.90
2018-08-07T00:16:24.578Z,99.90
2018-08-07T00:18:52.226Z,99.90
2018-08-07T00:21:19.867Z,99.90
2018-08-07T00:23:47.461Z,99.90
2018-08-07T00:26:15.078Z,99.90
2018-08-07T00:28:42.678Z,99.90
2018-08-07T00:31:13.667Z,99.90
2018-08-07T00:33:41.279Z,99.90
2018-08-07T00:38:37.486Z,99.90
2018-08-07T00:41:05.142Z,99.90
2018-08-07T00:43:32.714Z,99.90
2018-08-07T00:46:00.342Z,99.90
2018-08-07T00:48:27.881Z,99.90
2018-08-07T00:50:55.487Z,99.90
2018-08-07T00:53:23.090Z,99.90
2018-08-07T00:55:50.666Z,99.90
2018-08-07T00:58:18.370Z,99.90
2018-08-07T01:00:45.954Z,99.90
2018-08-07T01:03:16.958Z,99.90
2018-08-07T01:05:44.568Z,99.90
2018-08-07T01:08:12.202Z,99.90
2018-08-07T01:10:40.802Z,99.90
2018-08-07T01:13:08.511Z,99.90
2018-08-07T01:15:36.186Z,99.90
2018-08-07T01:18:04.522Z,99.90
2018-08-07T01:20:32.203Z,99.90
2018-08-07T01:22:59.878Z,99.90
2018-08-07T01:25:27.663Z,99.90
2018-08-07T01:27:55.287Z,99.90
2018-08-07T01:30:26.646Z,99.90
2018-08-07T01:32:54.966Z,99.90
2018-08-07T01:35:23.111Z,99.90
2018-08-07T01:37:54.502Z,99.90
2018-08-07T01:40:22.098Z,99.90
2018-08-07T01:42:49.795Z,99.90
2018-08-07T01:45:17.477Z,99.90
2018-08-07T01:47:45.138Z,99.90
2018-08-07T01:50:13.665Z,99.90
2018-08-07T01:52:41.527Z,99.90
2018-08-07T01:55:10.440Z,99.90
2018-08-07T01:57:38.382Z,99.90
2018-08-07T02:00:09.887Z,99.90
2018-08-07T02:02:37.756Z,99.90
2018-08-07T02:05:07.526Z,99.90
2018-08-07T02:07:35.242Z,99.90
2018-08-07T02:10:02.941Z,99.90
2018-08-07T02:12:30.575Z,99.90
2018-08-07T02:14:58.318Z,99.90
2018-08-07T02:17:25.982Z,99.90
2018-08-07T02:19:53.666Z,99.90
2018-08-07T02:22:21.254Z,99.90
2018-08-07T02:24:48.896Z,99.90
2018-08-07T02:27:16.612Z,99.90
2018-08-07T02:29:45.251Z,99.90
2018-08-07T02:32:12.932Z,99.90
2018-08-07T02:34:40.606Z,99.90
2018-08-07T02:37:08.226Z,99.90
2018-08-07T02:39:35.843Z,99.90
2018-08-07T02:42:03.488Z,99.90
2018-08-07T02:44:31.135Z,99.90
2018-08-07T02:46:58.759Z,99.90
2018-08-07T02:49:26.410Z,99.90
2018-08-07T02:51:53.991Z,99.90
2018-08-07T02:54:21.629Z,99.90
2018-08-07T02:56:49.323Z,99.90
2018-08-07T02:59:16.902Z,99.90
2018-08-07T03:01:44.523Z,99.90
2018-08-07T03:04:12.255Z,99.90
2018-08-07T03:06:39.938Z,99.90
2018-08-07T03:09:08.755Z,99.90
2018-08-07T03:11:40.371Z,99.90
2018-08-07T03:16:35.876Z,99.90
2018-08-07T03:19:03.598Z,99.90
2018-08-07T03:21:31.224Z,99.90
2018-08-07T03:23:58.911Z,99.90
2018-08-07T03:26:26.579Z,99.90
2018-08-07T03:28:54.306Z,99.90
2018-08-07T03:31:21.990Z,99.90
2018-08-07T03:33:49.678Z,99.90
2018-08-07T03:36:17.354Z,99.90
2018-08-07T03:38:44.929Z,99.90
2018-08-07T03:41:12.536Z,99.90
2018-08-07T03:43:40.166Z,99.90
2018-08-07T03:46:07.806Z,99.90
2018-08-07T03:48:35.477Z,99.90
2018-08-07T03:51:03.126Z,99.90
2018-08-07T03:53:30.790Z,99.90
2018-08-07T03:55:58.419Z,99.90
2018-08-07T03:58:26.094Z,99.90
2018-08-07T04:00:53.713Z,99.90
2018-08-07T04:03:21.397Z,99.90
2018-08-07T04:05:49.054Z,99.90
2018-08-07T04:08:16.740Z,99.90
2018-08-07T04:10:44.350Z,99.90
2018-08-07T04:13:12.978Z,99.90
2018-08-07T04:15:40.524Z,99.90
2018-08-07T04:18:08.182Z,99.90
2018-08-07T04:20:35.850Z,99.90
2018-08-07T04:23:03.539Z,99.90
2018-08-07T04:25:31.230Z,99.90
2018-08-07T04:27:58.846Z,99.90
2018-08-07T04:30:26.436Z,99.90
2018-08-07T04:32:54.102Z,99.90
2018-08-07T04:35:21.741Z,99.90
2018-08-07T04:37:49.408Z,99.90
2018-08-07T04:40:16.974Z,99.90
2018-08-07T04:42:44.653Z,99.90
2018-08-07T04:45:13.602Z,99.90
2018-08-07T04:47:41.774Z,99.90
2018-08-07T04:50:09.686Z,99.90
2018-08-07T04:52:38.082Z,99.90
2018-08-07T04:55:09.022Z,99.90
2018-08-07T04:57:36.825Z,99.90
2018-08-07T05:00:08.011Z,99.90
2018-08-07T05:02:35.631Z,99.90
2018-08-07T05:05:05.525Z,99.90
2018-08-07T05:07:33.245Z,99.90
2018-08-07T05:10:00.975Z,99.90
2018-08-07T05:12:28.647Z,99.90
2018-08-07T05:14:56.269Z,99.90
2018-08-07T05:17:23.877Z,99.90
2018-08-07T05:19:51.466Z,99.90
2018-08-07T05:22:19.066Z,99.90
2018-08-07T05:24:46.618Z,99.90
2018-08-07T05:27:14.324Z,99.90
2018-08-07T05:29:41.992Z,99.90
2018-08-07T05:32:09.607Z,99.90
2018-08-07T05:34:37.233Z,99.90
2018-08-07T05:37:04.864Z,99.90
2018-08-07T05:39:36.266Z,99.90
2018-08-07T05:42:03.894Z,99.90
2018-08-07T05:44:31.594Z,99.90
2018-08-07T05:46:59.233Z,99.90
2018-08-07T05:49:26.851Z,99.90
2018-08-07T05:51:54.462Z,99.90
2018-08-07T05:54:22.170Z,99.90
2018-08-07T05:56:49.807Z,99.90
2018-08-07T05:59:17.399Z,99.90
2018-08-07T06:01:45.105Z,99.90
2018-08-07T06:04:12.743Z,99.90
2018-08-07T06:06:40.370Z,99.90
2018-08-07T06:09:08.748Z,99.90
2018-08-07T06:11:36.392Z,99.90
2018-08-07T06:14:03.934Z,99.90
2018-08-07T06:16:31.546Z,99.90
2018-08-07T06:18:59.251Z,99.90
2018-08-07T06:21:26.872Z,99.90
2018-08-07T06:23:54.517Z,99.90
2018-08-07T06:26:22.158Z,99.90
2018-08-07T06:28:49.859Z,99.90
2018-08-07T06:31:17.476Z,99.90
2018-08-07T06:33:45.071Z,99.90
2018-08-07T06:36:12.675Z,99.90
2018-08-07T06:38:40.383Z,99.90
2018-08-07T06:41:08.024Z,99.90
2018-08-07T06:43:35.706Z,99.90
2018-08-07T06:46:03.550Z,99.90
2018-08-07T06:48:31.113Z,99.90
2018-08-07T06:50:58.711Z,99.90
2018-08-07T06:53:26.330Z,99.90
2018-08-07T06:55:53.848Z,99.90
2018-08-07T06:58:21.446Z,99.90
2018-08-07T07:00:49.103Z,99.90
2018-08-07T07:03:16.741Z,99.90
2018-08-07T07:05:44.328Z,99.90
2018-08-07T07:08:11.958Z,99.90
2018-08-07T07:10:39.560Z,99.90
2018-08-07T07:13:07.250Z,99.90
2018-08-07T07:17:43.190Z,99.90
2018-08-07T07:20:12.574Z,99.90
2018-08-07T07:22:41.107Z,99.90
2018-08-07T07:25:09.114Z,99.90
2018-08-07T07:27:36.781Z,99.90
2018-08-07T07:30:10.191Z,99.90
2018-08-07T07:32:37.785Z,99.90
2018-08-07T07:35:05.439Z,99.90
2018-08-07T07:37:33.090Z,99.90
2018-08-07T07:40:00.734Z,99.90
2018-08-07T07:42:28.224Z,99.90
2018-08-07T07:44:56.123Z,99.90
2018-08-07T07:47:23.674Z,99.90
2018-08-07T07:49:51.303Z,99.90
2018-08-07T07:52:18.949Z,99.90
2018-08-07T07:54:46.537Z,99.90
2018-08-07T07:57:14.146Z,99.90
2018-08-07T07:59:41.746Z,99.90
2018-08-07T08:02:09.354Z,99.90
2018-08-07T08:04:37.027Z,99.90
2018-08-07T08:07:04.723Z,99.90
2018-08-07T08:09:32.402Z,99.90
2018-08-07T08:12:00.013Z,99.90
2018-08-07T08:14:27.666Z,99.90
2018-08-07T08:16:55.338Z,99.90
2018-08-07T08:19:22.964Z,99.90
2018-08-07T08:21:50.570Z,99.90
2018-08-07T08:24:18.130Z,99.90
2018-08-07T08:26:45.826Z,99.90
2018-08-07T08:29:13.436Z,99.90
2018-08-07T08:31:40.919Z,99.90
2018-08-07T08:34:08.474Z,99.90
2018-08-07T08:36:36.062Z,99.90
2018-08-07T08:39:06.294Z,99.90
2018-08-07T08:41:33.911Z,99.90
2018-08-07T08:44:01.586Z,99.90
2018-08-07T08:46:29.258Z,99.90
2018-08-07T08:49:00.151Z,99.90
2018-08-07T08:51:27.774Z,99.90
2018-08-07T08:53:55.610Z,99.90
2018-08-07T08:56:23.204Z,99.90
2018-08-07T08:58:50.910Z,99.90
2018-08-07T09:01:18.578Z,99.90
2018-08-07T09:03:46.239Z,99.10
2018-08-07T09:06:13.907Z,99.10
2018-08-07T09:08:41.550Z,96.80
2018-08-07T09:11:09.127Z,92.30
2018-08-07T09:13:36.699Z,94.20
2018-08-07T09:16:04.374Z,91.50
2018-08-07T09:18:31.990Z,89.10
2018-08-07T09:20:59.625Z,91.40
2018-08-07T09:23:27.139Z,88.90
2018-08-07T09:25:54.904Z,88.30
2018-08-07T09:28:26.515Z,92.30
2018-08-07T09:30:54.122Z,92.00
2018-08-07T09:33:25.502Z,91.20
2018-08-07T09:35:53.122Z,93.30
2018-08-07T09:38:20.654Z,90.10
2018-08-07T09:43:19.594Z,91.40
2018-08-07T09:45:47.204Z,93.20
2018-08-07T09:48:15.251Z,82.90
2018-08-07T09:50:42.845Z,81.70
2018-08-07T09:53:10.425Z,81.50
2018-08-07T09:55:38.087Z,90.50
2018-08-07T09:58:05.784Z,92.30
2018-08-07T10:00:42.810Z,88.40
2018-08-07T10:03:16.242Z,86.60
2018-08-07T10:05:43.822Z,87.90
2018-08-07T10:08:11.329Z,83.70
2018-08-07T10:10:38.883Z,81.90
2018-08-07T10:13:06.624Z,84.50
2018-08-07T10:15:34.262Z,84.20
2018-08-07T10:18:01.874Z,79.30
2018-08-07T10:20:29.546Z,79.80
2018-08-07T10:22:57.151Z,76.90
2018-08-07T10:25:24.781Z,73.60
2018-08-07T10:27:52.391Z,75.20
2018-08-07T10:30:21.604Z,76.40
2018-08-07T10:32:49.593Z,71.80
2018-08-07T10:35:17.162Z,73.10
2018-08-07T10:37:45.330Z,71.10
2018-08-07T10:40:16.612Z,76.30
2018-08-07T10:42:44.307Z,76.40
2018-08-07T10:45:14.509Z,75.30
2018-08-07T10:47:42.281Z,74.20
2018-08-07T10:50:15.935Z,74.00
2018-08-07T10:52:43.570Z,75.30
2018-08-07T10:55:11.169Z,71.80
2018-08-07T10:57:40.582Z,72.30
2018-08-07T11:00:12.857Z,73.40
2018-08-07T11:02:40.252Z,73.50
2018-08-07T11:05:08.029Z,72.60
2018-08-07T11:07:35.401Z,73.80
2018-08-07T11:10:03.826Z,72.20
2018-08-07T11:12:31.181Z,73.20
2018-08-07T11:14:58.558Z,71.60
2018-08-07T11:17:25.977Z,72.20
2018-08-07T11:19:53.326Z,71.90
2018-08-07T11:22:25.146Z,69.40
2018-08-07T11:24:52.621Z,70.00
2018-08-07T11:27:19.965Z,71.60
2018-08-07T11:29:47.336Z,68.90
2018-08-07T11:32:14.729Z,73.50
2018-08-07T11:34:42.089Z,75.90
2018-08-07T11:37:09.469Z,69.70
2018-08-07T11:39:36.844Z,71.40
2018-08-07T11:42:04.265Z,67.70
2018-08-07T11:44:31.685Z,65.40
2018-08-07T11:47:00.101Z,66.60
2018-08-07T11:49:27.501Z,66.60
2018-08-07T11:51:54.953Z,67.10
2018-08-07T11:54:22.325Z,72.10
2018-08-07T11:56:49.669Z,68.50
2018-08-07T11:59:18.917Z,67.80
2018-08-07T12:01:46.907Z,64.20
2018-08-07T12:04:14.296Z,64.80
2018-08-07T12:06:42.030Z,64.70
2018-08-07T12:09:10.201Z,67.80
2018-08-07T12:11:37.993Z,66.40
2018-08-07T12:14:05.761Z,65.00
2018-08-07T12:16:34.238Z,64.00
2018-08-07T12:21:09.914Z,65.90
2018-08-07T12:23:37.269Z,65.60
2018-08-07T12:26:04.657Z,70.70
2018-08-07T12:28:32.025Z,64.80
2018-08-07T12:30:59.419Z,64.60
2018-08-07T12:33:26.801Z,68.80
2018-08-07T12:35:54.175Z,70.00
2018-08-07T12:38:21.546Z,71.20
2018-08-07T12:40:48.914Z,76.40
2018-08-07T12:43:16.301Z,70.10
2018-08-07T12:45:43.670Z,71.80
2018-08-07T12:48:11.060Z,66.30
2018-08-07T12:50:38.478Z,66.70
2018-08-07T12:53:06.001Z,65.90
2018-08-07T12:55:33.606Z,63.50
2018-08-07T12:58:01.267Z,67.20
2018-08-07T13:00:30.618Z,72.90
2018-08-07T13:02:58.210Z,71.30
2018-08-07T13:05:25.810Z,72.30
2018-08-07T13:07:53.506Z,99.90
2018-08-07T13:10:22.198Z,99.90
2018-08-07T13:12:50.815Z,99.90
2018-08-07T13:15:19.454Z,99.90
2018-08-07T13:17:48.534Z,99.90
2018-08-07T13:20:16.140Z,99.90
2018-08-07T13:22:44.478Z,99.90
2018-08-07T13:25:14.006Z,99.90
2018-08-07T13:27:41.699Z,99.90
2018-08-07T13:30:12.534Z,99.90
2018-08-07T13:32:40.749Z,99.90
2018-08-07T13:35:08.502Z,99.90
2018-08-07T13:37:36.123Z,99.90
2018-08-07T13:40:08.638Z,99.90
2018-08-07T13:42:36.579Z,99.90
2018-08-07T13:45:06.049Z,99.90
2018-08-07T13:47:33.409Z,99.90
2018-08-07T13:50:00.778Z,99.90
2018-08-07T13:52:28.177Z,99.90
2018-08-07T13:54:55.586Z,99.90
2018-08-07T13:57:22.957Z,99.90
2018-08-07T13:59:52.398Z,99.90
2018-08-07T14:02:19.766Z,99.90
2018-08-07T14:04:47.138Z,99.90
2018-08-07T14:07:14.506Z,99.90
2018-08-07T14:09:41.881Z,99.90
2018-08-07T14:12:09.273Z,99.90
2018-08-07T14:14:36.693Z,99.90
2018-08-07T14:17:04.074Z,99.90
2018-08-07T14:19:31.430Z,99.90
2018-08-07T14:21:58.797Z,99.90
2018-08-07T14:24:26.202Z,99.90
2018-08-07T14:26:53.582Z,99.90
2018-08-07T14:29:21.010Z,99.90
2018-08-07T14:31:48.386Z,99.90
2018-08-07T14:34:15.781Z,99.90
2018-08-07T14:36:43.200Z,99.90
2018-08-07T14:39:10.841Z,99.90
2018-08-07T14:41:38.249Z,99.90
2018-08-07T14:44:05.877Z,99.90
2018-08-07T14:46:33.281Z,99.90
2018-08-07T14:49:00.710Z,99.90
2018-08-07T14:51:28.113Z,99.90
2018-08-07T14:53:55.497Z,99.90
2018-08-07T14:56:22.923Z,99.90
2018-08-07T14:58:50.274Z,99.90
2018-08-07T15:01:17.674Z,99.90
2018-08-07T15:03:45.042Z,99.90
2018-08-07T15:06:12.463Z,99.90
2018-08-07T15:08:39.773Z,97.60
2018-08-07T15:11:07.237Z,99.90
2018-08-07T15:13:34.627Z,99.90
2018-08-07T15:16:02.041Z,94.40
2018-08-07T15:18:29.396Z,91.70
2018-08-07T15:20:56.781Z,85.20
2018-08-07T15:23:24.137Z,92.30
2018-08-07T15:25:51.545Z,90.20
2018-08-07T15:28:18.925Z,92.10
2018-08-07T15:30:46.321Z,94.40
2018-08-07T15:33:13.699Z,92.40
2018-08-07T15:35:41.094Z,95.10
2018-08-07T15:38:08.477Z,92.30
2018-08-07T15:40:35.865Z,94.50
2018-08-07T15:43:03.296Z,97.50
2018-08-07T15:45:30.725Z,94.60
2018-08-07T15:47:58.074Z,92.30
2018-08-07T15:50:25.441Z,90.30
2018-08-07T15:52:56.617Z,93.40
2018-08-07T15:55:25.245Z,98.20
2018-08-07T15:57:52.701Z,92.20
2018-08-07T16:00:28.597Z,86.90
2018-08-07T16:02:56.053Z,92.60
2018-08-07T16:05:23.513Z,91.30
2018-08-07T16:07:51.925Z,99.50
2018-08-07T16:10:19.896Z,95.70
2018-08-07T16:12:49.213Z,92.60
2018-08-07T16:15:16.571Z,99.90
2018-08-07T16:17:44.964Z,99.90
2018-08-07T16:20:12.358Z,93.40
2018-08-07T16:22:43.490Z,99.90
2018-08-07T16:25:12.493Z,99.90
2018-08-07T16:27:41.293Z,96.60
2018-08-07T16:30:11.880Z,99.90
2018-08-07T16:48:06.365Z,99.90
2018-08-07T16:50:33.781Z,99.90
2018-08-07T16:53:01.166Z,99.90
2018-08-07T16:55:29.351Z,99.90
2018-08-07T16:57:56.761Z,99.90
2018-08-07T17:00:24.169Z,99.90
2018-08-07T17:02:51.601Z,99.90
2018-08-07T17:05:18.988Z,99.90
2018-08-07T17:07:47.357Z,99.90
2018-08-07T17:10:18.150Z,99.90
2018-08-07T17:12:45.565Z,99.90
2018-08-07T17:15:12.973Z,99.90
2018-08-07T17:17:41.273Z,99.90
2018-08-07T17:20:10.217Z,99.90
2018-08-07T17:22:39.813Z,99.90
2018-08-07T17:25:08.996Z,99.90
2018-08-07T17:27:36.749Z,99.90
2018-08-07T17:30:07.985Z,99.90
2018-08-07T17:32:35.350Z,99.90
2018-08-07T17:35:02.789Z,99.90
2018-08-07T17:37:30.193Z,99.90
2018-08-07T17:39:57.614Z,99.90
2018-08-07T17:42:25.014Z,99.90
2018-08-07T17:44:52.381Z,99.90
2018-08-07T17:47:19.791Z,99.90
2018-08-07T17:49:47.230Z,99.90
2018-08-07T17:52:14.621Z,99.90
2018-08-07T17:54:42.021Z,99.90
2018-08-07T17:57:09.457Z,99.90
2018-08-07T17:59:36.845Z,99.90
2018-08-07T18:02:04.254Z,99.90
2018-08-07T18:04:31.646Z,99.90
2018-08-07T18:06:59.035Z,99.90
2018-08-07T18:09:26.460Z,99.90
2018-08-07T18:11:53.861Z,99.90
2018-08-07T18:14:21.297Z,99.90
2018-08-07T18:16:51.780Z,99.90
2018-08-07T18:19:19.189Z,99.90
2018-08-07T18:21:46.578Z,99.90
2018-08-07T18:24:14.042Z,99.90
2018-08-07T18:26:41.437Z,99.90
2018-08-07T18:29:08.815Z,99.90
2018-08-07T18:31:36.198Z,99.90
2018-08-07T18:34:03.601Z,99.90
2018-08-07T18:36:31.001Z,99.90
2018-08-07T18:38:59.624Z,99.90
2018-08-07T18:41:30.616Z,99.90
2018-08-07T18:43:58.182Z,99.90
2018-08-07T18:46:25.595Z,99.90
2018-08-07T18:48:53.079Z,99.90
2018-08-07T18:51:20.755Z,99.90
2018-08-07T18:53:48.115Z,99.90
2018-08-07T18:56:15.500Z,99.90
2018-08-07T18:58:42.965Z,99.90
2018-08-07T19:01:10.394Z,99.90
2018-08-07T19:03:37.829Z,99.90
2018-08-07T19:06:05.348Z,99.90
2018-08-07T19:08:32.983Z,99.90
2018-08-07T19:11:00.544Z,99.90
2018-08-07T19:13:28.208Z,99.90
2018-08-07T19:15:55.924Z,99.90
2018-08-07T19:18:23.540Z,99.90
2018-08-07T19:20:51.138Z,99.90
2018-08-07T19:23:18.926Z,99.90
2018-08-07T19:25:46.654Z,99.90
2018-08-07T19:28:14.203Z,99.90
2018-08-07T19:30:41.778Z,99.90
2018-08-07T19:33:09.462Z,99.90
2018-08-07T19:35:36.991Z,99.90
2018-08-07T19:38:04.862Z,99.90
2018-08-07T19:40:32.650Z,99.90
2018-08-07T19:43:00.363Z,99.90
2018-08-07T19:45:28.111Z,99.90
2018-08-07T19:47:55.778Z,99.90
2018-08-07T19:50:23.455Z,99.90
2018-08-07T19:52:51.118Z,99.90
2018-08-07T19:55:20.074Z,99.90
2018-08-07T19:57:47.743Z,99.90
2018-08-07T20:00:19.418Z,99.90
2018-08-07T20:02:47.474Z,99.90
2018-08-07T20:05:15.115Z,99.90
2018-08-07T20:07:42.790Z,99.90
2018-08-07T20:10:11.936Z,99.90
2018-08-07T20:12:40.139Z,99.90
2018-08-07T20:15:10.679Z,99.90
2018-08-07T20:17:38.661Z,99.90
2018-08-07T20:20:07.436Z,99.90
2018-08-07T20:22:35.177Z,99.90
2018-08-07T20:25:02.835Z,99.90
2018-08-07T20:27:30.465Z,99.90
2018-08-07T20:29:58.110Z,99.90
2018-08-07T20:32:25.756Z,99.90
2018-08-07T20:34:53.406Z,99.90
2018-08-07T20:37:21.008Z,99.90
2018-08-07T20:39:48.558Z,99.90
2018-08-07T20:42:16.181Z,99.90
2018-08-07T20:44:43.894Z,99.90
2018-08-07T20:47:11.538Z,99.90
2018-08-07T20:49:39.167Z,99.90
2018-08-07T20:52:06.755Z,99.90
2018-08-07T20:57:01.977Z,99.90
2018-08-07T20:59:29.566Z,99.90
2018-08-07T21:01:57.162Z,99.90
2018-08-07T21:04:24.780Z,99.90
2018-08-07T21:06:52.423Z,99.90
2018-08-07T21:09:20.124Z,99.90
2018-08-07T21:11:47.874Z,99.90
2018-08-07T21:14:15.511Z,99.90
2018-08-07T21:16:43.067Z,99.90
2018-08-07T21:19:10.884Z,99.90
2018-08-07T21:21:38.514Z,99.90
2018-08-07T21:24:06.103Z,99.90
2018-08-07T21:26:33.970Z,99.90
2018-08-07T21:29:01.586Z,99.90
2018-08-07T21:31:29.248Z,99.90
2018-08-07T21:33:56.897Z,99.90
2018-08-07T21:36:24.521Z,99.90
2018-08-07T21:38:52.114Z,99.90
2018-08-07T21:41:19.785Z,99.90
2018-08-07T21:43:47.440Z,99.90
2018-08-07T21:46:15.011Z,99.90
2018-08-07T21:48:42.611Z,99.90
2018-08-07T21:51:10.269Z,99.90
2018-08-07T21:53:37.878Z,99.90
2018-08-07T21:56:06.002Z,99.90
2018-08-07T21:58:33.586Z,99.90
2018-08-07T22:01:01.210Z,99.90
2018-08-07T22:03:28.829Z,99.90
2018-08-07T22:05:56.494Z,99.90
2018-08-07T22:08:24.092Z,99.90
2018-08-07T22:10:51.806Z,99.90
2018-08-07T22:13:58.409Z,99.90
2018-08-07T22:16:25.842Z,99.90
2018-08-07T22:18:53.234Z,99.90
2018-08-07T22:21:20.878Z,99.90
2018-08-07T22:23:48.261Z,99.90
2018-08-07T22:26:15.653Z,99.90
2018-08-07T22:28:43.053Z,99.90
2018-08-07T22:31:10.485Z,99.90
2018-08-07T22:33:37.853Z,99.90
2018-08-07T22:36:05.255Z,99.90
2018-08-07T22:38:32.629Z,99.90
2018-08-07T22:41:00.014Z,99.90
2018-08-07T22:43:27.429Z,99.90
2018-08-07T22:45:54.826Z,99.90
2018-08-07T22:48:22.231Z,99.90
2018-08-07T22:50:49.637Z,99.90
2018-08-07T22:53:17.017Z,99.90
2018-08-07T22:55:44.368Z,99.90
2018-08-07T22:58:11.748Z,99.90
2018-08-07T23:00:39.158Z,99.90
2018-08-07T23:03:06.566Z,99.90
2018-08-07T23:05:33.969Z,99.90
2018-08-07T23:08:01.334Z,99.90
2018-08-07T23:10:28.797Z,99.90
2018-08-07T23:12:56.242Z,99.90
2018-08-07T23:15:23.613Z,99.90
2018-08-07T23:17:51.022Z,99.90
2018-08-07T23:20:20.146Z,99.90
2018-08-07T23:22:47.557Z,99.90
2018-08-07T23:25:14.948Z,99.90
2018-08-07T23:27:42.447Z,99.90
2018-08-07T23:30:12.902Z,99.90
2018-08-07T23:32:40.370Z,99.90
2018-08-07T23:35:08.101Z,99.90
2018-08-07T23:37:35.661Z,99.90
2018-08-07T23:40:04.571Z,99.90
2018-08-07T23:42:32.184Z,99.90
2018-08-07T23:44:59.869Z,99.90
2018-08-07T23:47:27.478Z,99.90
2018-08-07T23:49:55.147Z,99.90
2018-08-07T23:52:22.933Z,99.90
2018-08-07T23:54:50.582Z,99.90
2018-08-07T23:57:18.198Z,99.90
2018-08-07T23:59:45.776Z,99.90
